sensor_id;sensor_type;location;lat;lon;timestamp;P1;durP1;ratioP1;P2;durP2;ratioP2
80175;SDS011;75462;42.122;24.736;2024-02-23T00:02:19;0.40;;;0.40;;
80175;SDS011;75462;42.122;24.736;2024-02-23T00:04:44;0.40;;;0.40;;
80175;SDS011;75462;42.122;24.736;2024-02-23T00:07:10;0.40;;;0.40;;
80175;SDS011;75462;42.122;24.736;2024-02-23T00:09:36;0.40;;;0.40;;
80175;SDS011;75462;42.122;24.736;2024-02-23T00:12:02;0.40;;;0.40;;
80175;SDS011;75462;42.122;24.736;2024-02-23T00:14:29;0.40;;;0.40;;
80175;SDS011;75462;42.122;24.736;2024-02-23T00:16:56;0.50;;;0.50;;
80175;SDS011;75462;42.122;24.736;2024-02-23T00:19:22;0.40;;;0.40;;
80175;SDS011;75462;42.122;24.736;2024-02-23T00:21:49;0.40;;;0.40;;
80175;SDS011;75462;42.122;24.736;2024-02-23T00:24:16;0.40;;;0.40;;
80175;SDS011;75462;42.122;24.736;2024-02-23T00:26:42;0.40;;;0.40;;
80175;SDS011;75462;42.122;24.736;2024-02-23T00:29:08;0.50;;;0.50;;
80175;SDS011;75462;42.122;24.736;2024-02-23T00:31:34;0.50;;;0.50;;
80175;SDS011;75462;42.122;24.736;2024-02-23T00:34:03;0.50;;;0.50;;
80175;SDS011;75462;42.122;24.736;2024-02-23T00:36:28;0.43;;;0.43;;
80175;SDS011;75462;42.122;24.736;2024-02-23T00:38:54;0.50;;;0.50;;
80175;SDS011;75462;42.122;24.736;2024-02-23T00:41:20;0.40;;;0.40;;
80175;SDS011;75462;42.122;24.736;2024-02-23T00:43:45;0.50;;;0.50;;
80175;SDS011;75462;42.122;24.736;2024-02-23T00:46:12;0.38;;;0.38;;
80175;SDS011;75462;42.122;24.736;2024-02-23T00:48:39;0.40;;;0.40;;
80175;SDS011;75462;42.122;24.736;2024-02-23T00:51:05;0.40;;;0.40;;
80175;SDS011;75462;42.122;24.736;2024-02-23T00:53:32;0.40;;;0.40;;
80175;SDS011;75462;42.122;24.736;2024-02-23T00:55:58;0.40;;;0.40;;
80175;SDS011;75462;42.122;24.736;2024-02-23T00:58:24;0.40;;;0.40;;
80175;SDS011;75462;42.122;24.736;2024-02-23T01:00:49;0.50;;;0.50;;
80175;SDS011;75462;42.122;24.736;2024-02-23T01:03:15;0.40;;;0.40;;
80175;SDS011;75462;42.122;24.736;2024-02-23T01:05:41;0.50;;;0.50;;
80175;SDS011;75462;42.122;24.736;2024-02-23T01:08:07;0.40;;;0.40;;
80175;SDS011;75462;42.122;24.736;2024-02-23T01:10:33;0.47;;;0.47;;
80175;SDS011;75462;42.122;24.736;2024-02-23T01:12:59;0.43;;;0.43;;
80175;SDS011;75462;42.122;24.736;2024-02-23T01:15:25;0.40;;;0.40;;
80175;SDS011;75462;42.122;24.736;2024-02-23T01:17:50;0.50;;;0.50;;
80175;SDS011;75462;42.122;24.736;2024-02-23T01:20:16;0.50;;;0.50;;
80175;SDS011;75462;42.122;24.736;2024-02-23T01:22:42;0.40;;;0.40;;
80175;SDS011;75462;42.122;24.736;2024-02-23T01:25:08;0.50;;;0.50;;
80175;SDS011;75462;42.122;24.736;2024-02-23T01:27:34;0.40;;;0.40;;
80175;SDS011;75462;42.122;24.736;2024-02-23T01:29:59;0.50;;;0.50;;
80175;SDS011;75462;42.122;24.736;2024-02-23T01:32:25;0.47;;;0.47;;
80175;SDS011;75462;42.122;24.736;2024-02-23T01:34:51;0.50;;;0.50;;
80175;SDS011;75462;42.122;24.736;2024-02-23T01:37:17;0.50;;;0.50;;
80175;SDS011;75462;42.122;24.736;2024-02-23T01:39:43;0.50;;;0.50;;
80175;SDS011;75462;42.122;24.736;2024-02-23T01:42:08;0.40;;;0.40;;
80175;SDS011;75462;42.122;24.736;2024-02-23T01:44:34;0.40;;;0.40;;
80175;SDS011;75462;42.122;24.736;2024-02-23T01:47:00;0.50;;;0.50;;
80175;SDS011;75462;42.122;24.736;2024-02-23T01:49:26;0.40;;;0.40;;
80175;SDS011;75462;42.122;24.736;2024-02-23T01:51:57;0.43;;;0.43;;
80175;SDS011;75462;42.122;24.736;2024-02-23T01:54:23;0.50;;;0.50;;
80175;SDS011;75462;42.122;24.736;2024-02-23T01:56:49;0.45;;;0.45;;
80175;SDS011;75462;42.122;24.736;2024-02-23T01:59:15;0.50;;;0.50;;
80175;SDS011;75462;42.122;24.736;2024-02-23T02:01:45;0.40;;;0.40;;
80175;SDS011;75462;42.122;24.736;2024-02-23T02:04:11;0.50;;;0.50;;
80175;SDS011;75462;42.122;24.736;2024-02-23T02:06:36;0.50;;;0.50;;
80175;SDS011;75462;42.122;24.736;2024-02-23T02:09:02;0.50;;;0.50;;
80175;SDS011;75462;42.122;24.736;2024-02-23T02:11:28;0.50;;;0.50;;
80175;SDS011;75462;42.122;24.736;2024-02-23T02:13:54;0.40;;;0.40;;
80175;SDS011;75462;42.122;24.736;2024-02-23T02:16:19;0.45;;;0.45;;
80175;SDS011;75462;42.122;24.736;2024-02-23T02:18:45;0.40;;;0.40;;
80175;SDS011;75462;42.122;24.736;2024-02-23T02:21:11;0.50;;;0.50;;
80175;SDS011;75462;42.122;24.736;2024-02-23T02:23:37;0.40;;;0.40;;
80175;SDS011;75462;42.122;24.736;2024-02-23T02:26:03;0.50;;;0.50;;
80175;SDS011;75462;42.122;24.736;2024-02-23T02:28:29;0.40;;;0.40;;
80175;SDS011;75462;42.122;24.736;2024-02-23T02:30:55;0.50;;;0.50;;
80175;SDS011;75462;42.122;24.736;2024-02-23T02:33:21;0.50;;;0.50;;
80175;SDS011;75462;42.122;24.736;2024-02-23T02:35:47;0.50;;;0.50;;
80175;SDS011;75462;42.122;24.736;2024-02-23T02:38:14;0.40;;;0.40;;
80175;SDS011;75462;42.122;24.736;2024-02-23T02:40:40;0.40;;;0.40;;
80175;SDS011;75462;42.122;24.736;2024-02-23T02:43:06;0.40;;;0.40;;
80175;SDS011;75462;42.122;24.736;2024-02-23T02:45:32;0.50;;;0.50;;
80175;SDS011;75462;42.122;24.736;2024-02-23T02:47:59;0.40;;;0.40;;
80175;SDS011;75462;42.122;24.736;2024-02-23T02:50:27;0.50;;;0.50;;
80175;SDS011;75462;42.122;24.736;2024-02-23T02:52:52;0.40;;;0.40;;
80175;SDS011;75462;42.122;24.736;2024-02-23T02:55:18;0.40;;;0.40;;
80175;SDS011;75462;42.122;24.736;2024-02-23T02:57:44;0.50;;;0.50;;
80175;SDS011;75462;42.122;24.736;2024-02-23T03:00:10;0.40;;;0.40;;
80175;SDS011;75462;42.122;24.736;2024-02-23T03:02:37;0.50;;;0.50;;
80175;SDS011;75462;42.122;24.736;2024-02-23T03:05:04;0.40;;;0.40;;
80175;SDS011;75462;42.122;24.736;2024-02-23T03:07:30;0.50;;;0.50;;
80175;SDS011;75462;42.122;24.736;2024-02-23T03:09:55;0.40;;;0.40;;
80175;SDS011;75462;42.122;24.736;2024-02-23T03:12:21;0.50;;;0.50;;
80175;SDS011;75462;42.122;24.736;2024-02-23T03:14:47;0.50;;;0.50;;
80175;SDS011;75462;42.122;24.736;2024-02-23T03:17:12;0.40;;;0.40;;
80175;SDS011;75462;42.122;24.736;2024-02-23T03:19:38;0.50;;;0.50;;
80175;SDS011;75462;42.122;24.736;2024-02-23T03:22:04;0.40;;;0.40;;
80175;SDS011;75462;42.122;24.736;2024-02-23T03:24:30;0.50;;;0.50;;
80175;SDS011;75462;42.122;24.736;2024-02-23T03:26:55;0.40;;;0.40;;
80175;SDS011;75462;42.122;24.736;2024-02-23T03:29:21;0.50;;;0.50;;
80175;SDS011;75462;42.122;24.736;2024-02-23T03:31:54;0.50;;;0.50;;
80175;SDS011;75462;42.122;24.736;2024-02-23T03:34:20;0.50;;;0.50;;
80175;SDS011;75462;42.122;24.736;2024-02-23T03:36:46;0.50;;;0.50;;
80175;SDS011;75462;42.122;24.736;2024-02-23T03:39:12;0.50;;;0.50;;
80175;SDS011;75462;42.122;24.736;2024-02-23T03:41:38;0.45;;;0.45;;
80175;SDS011;75462;42.122;24.736;2024-02-23T03:44:03;0.50;;;0.50;;
80175;SDS011;75462;42.122;24.736;2024-02-23T03:46:29;0.50;;;0.50;;
80175;SDS011;75462;42.122;24.736;2024-02-23T03:48:55;0.47;;;0.47;;
80175;SDS011;75462;42.122;24.736;2024-02-23T03:51:21;0.50;;;0.50;;
80175;SDS011;75462;42.122;24.736;2024-02-23T03:53:47;0.40;;;0.40;;
80175;SDS011;75462;42.122;24.736;2024-02-23T03:56:12;0.50;;;0.50;;
80175;SDS011;75462;42.122;24.736;2024-02-23T03:58:38;0.50;;;0.50;;
80175;SDS011;75462;42.122;24.736;2024-02-23T04:01:04;0.50;;;0.50;;
80175;SDS011;75462;42.122;24.736;2024-02-23T04:03:29;0.50;;;0.50;;
80175;SDS011;75462;42.122;24.736;2024-02-23T04:05:55;0.50;;;0.50;;
80175;SDS011;75462;42.122;24.736;2024-02-23T04:08:21;0.50;;;0.50;;
80175;SDS011;75462;42.122;24.736;2024-02-23T04:10:46;0.50;;;0.50;;
80175;SDS011;75462;42.122;24.736;2024-02-23T04:13:12;0.50;;;0.50;;
80175;SDS011;75462;42.122;24.736;2024-02-23T04:15:42;0.50;;;0.50;;
80175;SDS011;75462;42.122;24.736;2024-02-23T04:18:08;0.50;;;0.50;;
80175;SDS011;75462;42.122;24.736;2024-02-23T04:20:34;0.50;;;0.50;;
80175;SDS011;75462;42.122;24.736;2024-02-23T04:23:00;0.50;;;0.50;;
80175;SDS011;75462;42.122;24.736;2024-02-23T04:25:26;0.50;;;0.50;;
80175;SDS011;75462;42.122;24.736;2024-02-23T04:27:51;0.50;;;0.50;;
80175;SDS011;75462;42.122;24.736;2024-02-23T04:30:17;0.50;;;0.50;;
80175;SDS011;75462;42.122;24.736;2024-02-23T04:32:43;0.55;;;0.55;;
80175;SDS011;75462;42.122;24.736;2024-02-23T04:35:09;0.50;;;0.50;;
80175;SDS011;75462;42.122;24.736;2024-02-23T04:37:35;0.50;;;0.50;;
80175;SDS011;75462;42.122;24.736;2024-02-23T04:40:00;0.60;;;0.60;;
80175;SDS011;75462;42.122;24.736;2024-02-23T04:42:26;0.60;;;0.60;;
80175;SDS011;75462;42.122;24.736;2024-02-23T04:44:52;0.60;;;0.60;;
80175;SDS011;75462;42.122;24.736;2024-02-23T04:47:20;0.50;;;0.50;;
80175;SDS011;75462;42.122;24.736;2024-02-23T04:49:46;0.50;;;0.50;;
80175;SDS011;75462;42.122;24.736;2024-02-23T04:52:11;0.50;;;0.50;;
80175;SDS011;75462;42.122;24.736;2024-02-23T04:54:37;0.50;;;0.50;;
80175;SDS011;75462;42.122;24.736;2024-02-23T04:57:03;0.50;;;0.50;;
80175;SDS011;75462;42.122;24.736;2024-02-23T04:59:29;0.50;;;0.50;;
80175;SDS011;75462;42.122;24.736;2024-02-23T05:01:57;0.60;;;0.60;;
80175;SDS011;75462;42.122;24.736;2024-02-23T05:04:23;0.50;;;0.50;;
80175;SDS011;75462;42.122;24.736;2024-02-23T05:06:48;0.50;;;0.50;;
80175;SDS011;75462;42.122;24.736;2024-02-23T05:09:14;0.50;;;0.50;;
80175;SDS011;75462;42.122;24.736;2024-02-23T05:11:40;0.50;;;0.50;;
80175;SDS011;75462;42.122;24.736;2024-02-23T05:14:05;0.50;;;0.50;;
80175;SDS011;75462;42.122;24.736;2024-02-23T05:16:31;0.50;;;0.50;;
80175;SDS011;75462;42.122;24.736;2024-02-23T05:18:57;0.50;;;0.50;;
80175;SDS011;75462;42.122;24.736;2024-02-23T05:21:23;0.50;;;0.50;;
80175;SDS011;75462;42.122;24.736;2024-02-23T05:23:48;0.40;;;0.40;;
80175;SDS011;75462;42.122;24.736;2024-02-23T05:26:14;0.45;;;0.45;;
80175;SDS011;75462;42.122;24.736;2024-02-23T05:28:40;0.50;;;0.50;;
80175;SDS011;75462;42.122;24.736;2024-02-23T05:31:06;0.50;;;0.50;;
80175;SDS011;75462;42.122;24.736;2024-02-23T05:33:32;0.50;;;0.50;;
80175;SDS011;75462;42.122;24.736;2024-02-23T05:35:57;0.50;;;0.50;;
80175;SDS011;75462;42.122;24.736;2024-02-23T05:38:23;0.50;;;0.50;;
80175;SDS011;75462;42.122;24.736;2024-02-23T05:40:49;0.50;;;0.50;;
80175;SDS011;75462;42.122;24.736;2024-02-23T05:43:15;0.50;;;0.50;;
80175;SDS011;75462;42.122;24.736;2024-02-23T05:45:40;0.50;;;0.50;;
80175;SDS011;75462;42.122;24.736;2024-02-23T05:48:06;0.50;;;0.50;;
80175;SDS011;75462;42.122;24.736;2024-02-23T05:50:32;0.50;;;0.50;;
80175;SDS011;75462;42.122;24.736;2024-02-23T05:52:58;0.50;;;0.50;;
80175;SDS011;75462;42.122;24.736;2024-02-23T05:55:23;0.50;;;0.50;;
80175;SDS011;75462;42.122;24.736;2024-02-23T05:57:49;0.50;;;0.50;;
80175;SDS011;75462;42.122;24.736;2024-02-23T06:00:18;0.50;;;0.50;;
80175;SDS011;75462;42.122;24.736;2024-02-23T06:02:44;0.50;;;0.50;;
80175;SDS011;75462;42.122;24.736;2024-02-23T06:05:11;0.40;;;0.40;;
80175;SDS011;75462;42.122;24.736;2024-02-23T06:07:37;0.50;;;0.50;;
80175;SDS011;75462;42.122;24.736;2024-02-23T06:10:03;0.50;;;0.50;;
80175;SDS011;75462;42.122;24.736;2024-02-23T06:12:30;0.50;;;0.50;;
80175;SDS011;75462;42.122;24.736;2024-02-23T06:14:56;0.50;;;0.50;;
80175;SDS011;75462;42.122;24.736;2024-02-23T06:17:23;0.50;;;0.50;;
80175;SDS011;75462;42.122;24.736;2024-02-23T06:19:49;0.50;;;0.50;;
80175;SDS011;75462;42.122;24.736;2024-02-23T06:22:15;0.50;;;0.50;;
80175;SDS011;75462;42.122;24.736;2024-02-23T06:24:46;0.50;;;0.50;;
80175;SDS011;75462;42.122;24.736;2024-02-23T06:27:12;0.40;;;0.40;;
80175;SDS011;75462;42.122;24.736;2024-02-23T06:29:37;0.50;;;0.50;;
80175;SDS011;75462;42.122;24.736;2024-02-23T06:32:03;0.50;;;0.50;;
80175;SDS011;75462;42.122;24.736;2024-02-23T06:34:29;0.50;;;0.50;;
80175;SDS011;75462;42.122;24.736;2024-02-23T06:36:55;0.50;;;0.50;;
80175;SDS011;75462;42.122;24.736;2024-02-23T06:39:21;0.40;;;0.40;;
80175;SDS011;75462;42.122;24.736;2024-02-23T06:41:47;0.50;;;0.50;;
80175;SDS011;75462;42.122;24.736;2024-02-23T06:44:12;0.50;;;0.50;;
80175;SDS011;75462;42.122;24.736;2024-02-23T06:46:38;0.40;;;0.40;;
80175;SDS011;75462;42.122;24.736;2024-02-23T06:49:04;0.50;;;0.50;;
80175;SDS011;75462;42.122;24.736;2024-02-23T06:51:30;0.40;;;0.40;;
80175;SDS011;75462;42.122;24.736;2024-02-23T06:53:57;0.50;;;0.50;;
80175;SDS011;75462;42.122;24.736;2024-02-23T06:56:23;0.40;;;0.40;;
80175;SDS011;75462;42.122;24.736;2024-02-23T06:58:48;0.40;;;0.40;;
80175;SDS011;75462;42.122;24.736;2024-02-23T07:01:14;0.40;;;0.40;;
80175;SDS011;75462;42.122;24.736;2024-02-23T07:03:40;0.40;;;0.40;;
80175;SDS011;75462;42.122;24.736;2024-02-23T07:06:10;0.40;;;0.40;;
80175;SDS011;75462;42.122;24.736;2024-02-23T07:08:36;0.50;;;0.50;;
80175;SDS011;75462;42.122;24.736;2024-02-23T07:11:02;0.40;;;0.40;;
80175;SDS011;75462;42.122;24.736;2024-02-23T07:13:28;0.50;;;0.50;;
80175;SDS011;75462;42.122;24.736;2024-02-23T07:15:55;0.40;;;0.40;;
80175;SDS011;75462;42.122;24.736;2024-02-23T07:18:21;0.50;;;0.50;;
80175;SDS011;75462;42.122;24.736;2024-02-23T07:20:47;0.40;;;0.40;;
80175;SDS011;75462;42.122;24.736;2024-02-23T07:23:13;0.40;;;0.40;;
80175;SDS011;75462;42.122;24.736;2024-02-23T07:25:41;0.40;;;0.40;;
80175;SDS011;75462;42.122;24.736;2024-02-23T07:28:07;0.40;;;0.40;;
80175;SDS011;75462;42.122;24.736;2024-02-23T07:30:33;0.40;;;0.40;;
80175;SDS011;75462;42.122;24.736;2024-02-23T07:33:00;0.30;;;0.30;;
80175;SDS011;75462;42.122;24.736;2024-02-23T07:35:25;0.40;;;0.40;;
80175;SDS011;75462;42.122;24.736;2024-02-23T07:37:51;0.40;;;0.40;;
80175;SDS011;75462;42.122;24.736;2024-02-23T07:40:17;0.40;;;0.40;;
80175;SDS011;75462;42.122;24.736;2024-02-23T07:42:43;0.40;;;0.40;;
80175;SDS011;75462;42.122;24.736;2024-02-23T07:45:09;0.40;;;0.40;;
80175;SDS011;75462;42.122;24.736;2024-02-23T07:47:35;0.38;;;0.38;;
80175;SDS011;75462;42.122;24.736;2024-02-23T07:50:01;0.40;;;0.40;;
80175;SDS011;75462;42.122;24.736;2024-02-23T07:52:27;0.30;;;0.30;;
80175;SDS011;75462;42.122;24.736;2024-02-23T07:54:53;0.35;;;0.35;;
80175;SDS011;75462;42.122;24.736;2024-02-23T07:57:19;0.30;;;0.30;;
80175;SDS011;75462;42.122;24.736;2024-02-23T07:59:45;0.30;;;0.30;;
80175;SDS011;75462;42.122;24.736;2024-02-23T08:02:11;0.40;;;0.40;;
80175;SDS011;75462;42.122;24.736;2024-02-23T08:04:37;0.40;;;0.40;;
80175;SDS011;75462;42.122;24.736;2024-02-23T08:07:03;0.30;;;0.30;;
80175;SDS011;75462;42.122;24.736;2024-02-23T08:09:29;0.30;;;0.30;;
80175;SDS011;75462;42.122;24.736;2024-02-23T08:11:55;0.30;;;0.30;;
80175;SDS011;75462;42.122;24.736;2024-02-23T08:14:21;0.30;;;0.30;;
80175;SDS011;75462;42.122;24.736;2024-02-23T08:16:46;0.30;;;0.30;;
80175;SDS011;75462;42.122;24.736;2024-02-23T08:19:12;0.30;;;0.30;;
80175;SDS011;75462;42.122;24.736;2024-02-23T08:21:38;0.30;;;0.30;;
80175;SDS011;75462;42.122;24.736;2024-02-23T08:24:04;0.30;;;0.30;;
80175;SDS011;75462;42.122;24.736;2024-02-23T08:26:30;0.40;;;0.40;;
80175;SDS011;75462;42.122;24.736;2024-02-23T08:28:56;0.35;;;0.35;;
80175;SDS011;75462;42.122;24.736;2024-02-23T08:31:22;0.30;;;0.30;;
80175;SDS011;75462;42.122;24.736;2024-02-23T08:33:47;0.30;;;0.30;;
80175;SDS011;75462;42.122;24.736;2024-02-23T08:36:13;0.30;;;0.30;;
80175;SDS011;75462;42.122;24.736;2024-02-23T08:38:41;0.40;;;0.40;;
80175;SDS011;75462;42.122;24.736;2024-02-23T08:41:07;0.30;;;0.30;;
80175;SDS011;75462;42.122;24.736;2024-02-23T08:43:33;0.30;;;0.30;;
80175;SDS011;75462;42.122;24.736;2024-02-23T08:45:59;0.30;;;0.30;;
80175;SDS011;75462;42.122;24.736;2024-02-23T08:48:25;0.30;;;0.30;;
80175;SDS011;75462;42.122;24.736;2024-02-23T08:50:51;0.20;;;0.20;;
80175;SDS011;75462;42.122;24.736;2024-02-23T08:53:16;0.30;;;0.30;;
80175;SDS011;75462;42.122;24.736;2024-02-23T08:55:42;0.30;;;0.30;;
80175;SDS011;75462;42.122;24.736;2024-02-23T08:58:09;0.30;;;0.30;;
80175;SDS011;75462;42.122;24.736;2024-02-23T09:00:35;0.20;;;0.20;;
80175;SDS011;75462;42.122;24.736;2024-02-23T09:03:02;0.30;;;0.30;;
80175;SDS011;75462;42.122;24.736;2024-02-23T09:05:28;0.30;;;0.30;;
80175;SDS011;75462;42.122;24.736;2024-02-23T09:07:54;0.25;;;0.25;;
80175;SDS011;75462;42.122;24.736;2024-02-23T09:10:20;0.20;;;0.20;;
80175;SDS011;75462;42.122;24.736;2024-02-23T09:12:45;0.30;;;0.30;;
80175;SDS011;75462;42.122;24.736;2024-02-23T09:15:12;0.30;;;0.30;;
80175;SDS011;75462;42.122;24.736;2024-02-23T09:17:39;0.30;;;0.30;;
80175;SDS011;75462;42.122;24.736;2024-02-23T09:20:05;0.30;;;0.30;;
80175;SDS011;75462;42.122;24.736;2024-02-23T09:22:32;0.30;;;0.30;;
80175;SDS011;75462;42.122;24.736;2024-02-23T09:24:58;0.30;;;0.30;;
80175;SDS011;75462;42.122;24.736;2024-02-23T09:27:23;0.30;;;0.30;;
80175;SDS011;75462;42.122;24.736;2024-02-23T09:29:49;0.20;;;0.20;;
80175;SDS011;75462;42.122;24.736;2024-02-23T09:32:15;0.30;;;0.30;;
80175;SDS011;75462;42.122;24.736;2024-02-23T09:34:41;0.30;;;0.30;;
80175;SDS011;75462;42.122;24.736;2024-02-23T09:37:07;0.30;;;0.30;;
80175;SDS011;75462;42.122;24.736;2024-02-23T09:39:33;0.30;;;0.30;;
80175;SDS011;75462;42.122;24.736;2024-02-23T09:41:59;0.30;;;0.30;;
80175;SDS011;75462;42.122;24.736;2024-02-23T09:44:28;0.20;;;0.20;;
80175;SDS011;75462;42.122;24.736;2024-02-23T09:47:03;0.30;;;0.30;;
80175;SDS011;75462;42.122;24.736;2024-02-23T09:49:39;0.30;;;0.30;;
80175;SDS011;75462;42.122;24.736;2024-02-23T09:52:09;0.30;;;0.30;;
80175;SDS011;75462;42.122;24.736;2024-02-23T09:54:38;0.30;;;0.30;;
80175;SDS011;75462;42.122;24.736;2024-02-23T09:57:06;0.30;;;0.30;;
80175;SDS011;75462;42.122;24.736;2024-02-23T09:59:42;0.20;;;0.20;;
80175;SDS011;75462;42.122;24.736;2024-02-23T10:02:09;0.30;;;0.30;;
80175;SDS011;75462;42.122;24.736;2024-02-23T10:04:44;0.30;;;0.30;;
80175;SDS011;75462;42.122;24.736;2024-02-23T10:07:10;0.20;;;0.20;;
80175;SDS011;75462;42.122;24.736;2024-02-23T10:09:42;0.20;;;0.20;;
80175;SDS011;75462;42.122;24.736;2024-02-23T10:12:07;0.20;;;0.20;;
80175;SDS011;75462;42.122;24.736;2024-02-23T10:14:33;0.20;;;0.20;;
80175;SDS011;75462;42.122;24.736;2024-02-23T10:16:59;0.28;;;0.28;;
80175;SDS011;75462;42.122;24.736;2024-02-23T10:19:26;0.20;;;0.20;;
80175;SDS011;75462;42.122;24.736;2024-02-23T10:21:54;0.30;;;0.30;;
80175;SDS011;75462;42.122;24.736;2024-02-23T10:24:22;0.20;;;0.20;;
80175;SDS011;75462;42.122;24.736;2024-02-23T10:26:51;0.20;;;0.20;;
80175;SDS011;75462;42.122;24.736;2024-02-23T10:29:20;0.20;;;0.20;;
80175;SDS011;75462;42.122;24.736;2024-02-23T10:31:46;0.20;;;0.20;;
80175;SDS011;75462;42.122;24.736;2024-02-23T10:34:14;0.20;;;0.20;;
80175;SDS011;75462;42.122;24.736;2024-02-23T10:36:47;0.20;;;0.20;;
80175;SDS011;75462;42.122;24.736;2024-02-23T10:39:15;0.20;;;0.20;;
80175;SDS011;75462;42.122;24.736;2024-02-23T10:41:55;0.20;;;0.20;;
80175;SDS011;75462;42.122;24.736;2024-02-23T10:44:23;0.20;;;0.20;;
80175;SDS011;75462;42.122;24.736;2024-02-23T10:46:52;0.20;;;0.20;;
80175;SDS011;75462;42.122;24.736;2024-02-23T10:49:23;0.20;;;0.20;;
80175;SDS011;75462;42.122;24.736;2024-02-23T10:51:52;0.20;;;0.20;;
80175;SDS011;75462;42.122;24.736;2024-02-23T10:54:19;0.20;;;0.20;;
80175;SDS011;75462;42.122;24.736;2024-02-23T10:56:50;0.20;;;0.20;;
80175;SDS011;75462;42.122;24.736;2024-02-23T10:59:16;0.20;;;0.20;;
80175;SDS011;75462;42.122;24.736;2024-02-23T11:01:46;0.20;;;0.20;;
80175;SDS011;75462;42.122;24.736;2024-02-23T11:04:15;0.20;;;0.20;;
80175;SDS011;75462;42.122;24.736;2024-02-23T11:06:42;0.20;;;0.20;;
80175;SDS011;75462;42.122;24.736;2024-02-23T11:09:12;0.20;;;0.20;;
80175;SDS011;75462;42.122;24.736;2024-02-23T11:11:50;0.20;;;0.20;;
80175;SDS011;75462;42.122;24.736;2024-02-23T11:14:34;0.20;;;0.20;;
80175;SDS011;75462;42.122;24.736;2024-02-23T11:17:01;0.20;;;0.20;;
80175;SDS011;75462;42.122;24.736;2024-02-23T11:19:34;0.10;;;0.10;;
80175;SDS011;75462;42.122;24.736;2024-02-23T11:22:01;0.10;;;0.10;;
80175;SDS011;75462;42.122;24.736;2024-02-23T11:24:31;0.15;;;0.15;;
80175;SDS011;75462;42.122;24.736;2024-02-23T11:26:57;0.20;;;0.20;;
80175;SDS011;75462;42.122;24.736;2024-02-23T11:29:28;0.10;;;0.10;;
80175;SDS011;75462;42.122;24.736;2024-02-23T11:31:54;0.10;;;0.10;;
80175;SDS011;75462;42.122;24.736;2024-02-23T11:34:26;0.10;;;0.10;;
80175;SDS011;75462;42.122;24.736;2024-02-23T11:36:52;0.10;;;0.10;;
80175;SDS011;75462;42.122;24.736;2024-02-23T11:39:24;0.10;;;0.10;;
80175;SDS011;75462;42.122;24.736;2024-02-23T11:41:51;0.10;;;0.10;;
80175;SDS011;75462;42.122;24.736;2024-02-23T11:44:17;0.00;;;0.00;;
80175;SDS011;75462;42.122;24.736;2024-02-23T11:46:47;0.00;;;0.00;;
80175;SDS011;75462;42.122;24.736;2024-02-23T11:49:16;0.00;;;0.00;;
80175;SDS011;75462;42.122;24.736;2024-02-23T11:51:41;0.00;;;0.00;;
80175;SDS011;75462;42.122;24.736;2024-02-23T11:54:07;0.00;;;0.00;;
80175;SDS011;75462;42.122;24.736;2024-02-23T11:56:34;0.00;;;0.00;;
80175;SDS011;75462;42.122;24.736;2024-02-23T11:59:05;0.00;;;0.00;;
80175;SDS011;75462;42.122;24.736;2024-02-23T12:01:31;0.00;;;0.00;;
80175;SDS011;75462;42.122;24.736;2024-02-23T12:03:57;0.00;;;0.00;;
80175;SDS011;75462;42.122;24.736;2024-02-23T12:06:23;0.00;;;0.00;;
80175;SDS011;75462;42.122;24.736;2024-02-23T12:08:55;0.00;;;0.00;;
80175;SDS011;75462;42.122;24.736;2024-02-23T12:11:20;0.00;;;0.00;;
80175;SDS011;75462;42.122;24.736;2024-02-23T12:13:50;0.00;;;0.00;;
80175;SDS011;75462;42.122;24.736;2024-02-23T12:16:16;0.00;;;0.00;;
80175;SDS011;75462;42.122;24.736;2024-02-23T12:18:42;0.00;;;0.00;;
80175;SDS011;75462;42.122;24.736;2024-02-23T12:21:08;0.00;;;0.00;;
80175;SDS011;75462;42.122;24.736;2024-02-23T12:23:52;0.00;;;0.00;;
80175;SDS011;75462;42.122;24.736;2024-02-23T12:26:18;0.00;;;0.00;;
80175;SDS011;75462;42.122;24.736;2024-02-23T12:28:44;0.00;;;0.00;;
80175;SDS011;75462;42.122;24.736;2024-02-23T12:31:13;0.00;;;0.00;;
80175;SDS011;75462;42.122;24.736;2024-02-23T12:33:39;0.00;;;0.00;;
80175;SDS011;75462;42.122;24.736;2024-02-23T12:36:06;0.00;;;0.00;;
80175;SDS011;75462;42.122;24.736;2024-02-23T12:38:33;0.00;;;0.00;;
80175;SDS011;75462;42.122;24.736;2024-02-23T12:41:00;0.00;;;0.00;;
80175;SDS011;75462;42.122;24.736;2024-02-23T12:43:27;0.00;;;0.00;;
80175;SDS011;75462;42.122;24.736;2024-02-23T12:45:54;0.00;;;0.00;;
80175;SDS011;75462;42.122;24.736;2024-02-23T12:48:21;0.00;;;0.00;;
80175;SDS011;75462;42.122;24.736;2024-02-23T12:50:47;0.00;;;0.00;;
80175;SDS011;75462;42.122;24.736;2024-02-23T12:53:33;0.00;;;0.00;;
80175;SDS011;75462;42.122;24.736;2024-02-23T12:56:03;0.00;;;0.00;;
80175;SDS011;75462;42.122;24.736;2024-02-23T12:58:31;0.00;;;0.00;;
80175;SDS011;75462;42.122;24.736;2024-02-23T13:00:59;0.00;;;0.00;;
80175;SDS011;75462;42.122;24.736;2024-02-23T13:03:25;0.00;;;0.00;;
80175;SDS011;75462;42.122;24.736;2024-02-23T13:05:52;0.00;;;0.00;;
80175;SDS011;75462;42.122;24.736;2024-02-23T13:08:18;0.00;;;0.00;;
80175;SDS011;75462;42.122;24.736;2024-02-23T13:10:44;0.00;;;0.00;;
80175;SDS011;75462;42.122;24.736;2024-02-23T13:13:10;0.00;;;0.00;;
80175;SDS011;75462;42.122;24.736;2024-02-23T13:15:37;0.00;;;0.00;;
80175;SDS011;75462;42.122;24.736;2024-02-23T13:18:04;0.00;;;0.00;;
80175;SDS011;75462;42.122;24.736;2024-02-23T13:20:30;0.00;;;0.00;;
80175;SDS011;75462;42.122;24.736;2024-02-23T13:22:56;0.00;;;0.00;;
80175;SDS011;75462;42.122;24.736;2024-02-23T13:25:22;0.00;;;0.00;;
80175;SDS011;75462;42.122;24.736;2024-02-23T13:27:48;0.00;;;0.00;;
80175;SDS011;75462;42.122;24.736;2024-02-23T13:30:13;0.00;;;0.00;;
80175;SDS011;75462;42.122;24.736;2024-02-23T13:32:39;0.00;;;0.00;;
80175;SDS011;75462;42.122;24.736;2024-02-23T13:35:05;0.00;;;0.00;;
80175;SDS011;75462;42.122;24.736;2024-02-23T13:37:31;0.00;;;0.00;;
80175;SDS011;75462;42.122;24.736;2024-02-23T13:39:58;0.00;;;0.00;;
80175;SDS011;75462;42.122;24.736;2024-02-23T13:42:23;0.00;;;0.00;;
80175;SDS011;75462;42.122;24.736;2024-02-23T13:44:49;0.00;;;0.00;;
80175;SDS011;75462;42.122;24.736;2024-02-23T13:47:15;0.20;;;0.00;;
80175;SDS011;75462;42.122;24.736;2024-02-23T13:49:41;0.00;;;0.00;;
80175;SDS011;75462;42.122;24.736;2024-02-23T13:52:06;0.00;;;0.00;;
80175;SDS011;75462;42.122;24.736;2024-02-23T13:54:32;0.00;;;0.00;;
80175;SDS011;75462;42.122;24.736;2024-02-23T13:56:58;0.00;;;0.00;;
80175;SDS011;75462;42.122;24.736;2024-02-23T13:59:23;0.00;;;0.00;;
80175;SDS011;75462;42.122;24.736;2024-02-23T14:01:49;0.00;;;0.00;;
80175;SDS011;75462;42.122;24.736;2024-02-23T14:04:15;0.00;;;0.00;;
80175;SDS011;75462;42.122;24.736;2024-02-23T14:06:42;0.00;;;0.00;;
80175;SDS011;75462;42.122;24.736;2024-02-23T14:09:08;0.00;;;0.00;;
80175;SDS011;75462;42.122;24.736;2024-02-23T14:11:34;0.00;;;0.00;;
80175;SDS011;75462;42.122;24.736;2024-02-23T14:14:00;0.00;;;0.00;;
80175;SDS011;75462;42.122;24.736;2024-02-23T14:16:28;0.00;;;0.00;;
80175;SDS011;75462;42.122;24.736;2024-02-23T14:18:54;0.00;;;0.00;;
80175;SDS011;75462;42.122;24.736;2024-02-23T14:21:20;0.00;;;0.00;;
80175;SDS011;75462;42.122;24.736;2024-02-23T14:23:47;0.00;;;0.00;;
80175;SDS011;75462;42.122;24.736;2024-02-23T14:26:13;0.00;;;0.00;;
80175;SDS011;75462;42.122;24.736;2024-02-23T14:28:39;0.00;;;0.00;;
80175;SDS011;75462;42.122;24.736;2024-02-23T14:31:05;0.00;;;0.00;;